TimeEST,TemperatureF,Dew PointF,Humidity,Sea Level PressureIn,VisibilityMPH,Wind Direction,Wind SpeedMPH,Gust SpeedMPH,PrecipitationIn,Events,Conditions,WindDirDegrees,DateUTC
12:53 AM,73.0,61.0,66,30.16,10.0,ESE,10.4,-,N/A,,Overcast,120,2013-01-01 05:53:00
1:53 AM,73.0,62.1,68,30.14,10.0,ESE,10.4,-,N/A,,Mostly Cloudy,120,2013-01-01 06:53:00
2:53 AM,73.0,59.0,61,30.14,10.0,ESE,11.5,-,N/A,,Overcast,120,2013-01-01 07:53:00
3:53 AM,73.0,61.0,66,30.14,10.0,ESE,6.9,-,N/A,,Overcast,110,2013-01-01 08:53:00
4:53 AM,72.0,63.0,73,30.13,10.0,ESE,9.2,-,N/A,,Overcast,110,2013-01-01 09:53:00
5:53 AM,70.0,59.0,68,30.13,10.0,ESE,6.9,-,N/A,,Overcast,120,2013-01-01 10:53:00
6:53 AM,73.0,59.0,61,30.12,10.0,SE,9.2,-,N/A,,Partly Cloudy,130,2013-01-01 11:53:00
7:53 AM,73.0,63.0,71,30.12,10.0,SE,11.5,-,N/A,,Mostly Cloudy,130,2013-01-01 12:53:00
8:53 AM,73.9,62.1,66,30.14,10.0,ESE,11.5,-,N/A,,Clear,120,2013-01-01 13:53:00
9:53 AM,75.9,63.0,64,30.15,10.0,SE,11.5,-,N/A,,Clear,130,2013-01-01 14:53:00
10:53 AM,77.0,66.0,69,30.15,10.0,ESE,11.5,-,N/A,,Clear,120,2013-01-01 15:53:00
11:53 AM,77.0,66.9,71,30.12,10.0,ESE,11.5,-,N/A,,Clear,120,2013-01-01 16:53:00
12:53 PM,77.0,66.9,71,30.08,10.0,SE,13.8,-,N/A,,Clear,130,2013-01-01 17:53:00
1:53 PM,77.0,66.9,71,30.05,10.0,SE,13.8,-,N/A,,Clear,130,2013-01-01 18:53:00
2:53 PM,77.0,68.0,74,30.04,10.0,SE,13.8,-,N/A,,Clear,130,2013-01-01 19:53:00
3:53 PM,77.0,68.0,74,30.04,10.0,ESE,12.7,-,N/A,,Clear,120,2013-01-01 20:53:00
4:53 PM,75.9,69.1,79,30.04,10.0,ESE,8.1,-,N/A,,Clear,110,2013-01-01 21:53:00
5:42 PM,73.4,68.0,83,30.04,9.0,East,6.9,-,N/A,,Mostly Cloudy,100,2013-01-01 22:42:00
5:53 PM,73.9,69.1,85,30.05,9.0,ESE,5.8,-,N/A,,Overcast,110,2013-01-01 22:53:00
6:53 PM,73.9,69.1,85,30.04,10.0,ESE,9.2,-,N/A,,Mostly Cloudy,110,2013-01-01 23:53:00
7:21 PM,73.4,69.8,88,30.05,10.0,ESE,8.1,-,N/A,,Partly Cloudy,120,2013-01-02 00:21:00
7:53 PM,73.0,69.1,87,30.05,10.0,ESE,8.1,-,N/A,,Clear,110,2013-01-02 00:53:00
8:53 PM,73.0,69.1,87,30.07,10.0,ESE,6.9,-,N/A,,Clear,110,2013-01-02 01:53:00
9:53 PM,73.0,69.1,87,30.08,10.0,East,5.8,-,N/A,,Clear,100,2013-01-02 02:53:00
10:53 PM,72.0,69.1,91,30.08,10.0,East,4.6,-,N/A,,Scattered Clouds,100,2013-01-02 03:53:00
11:53 PM,72.0,69.1,91,30.07,10.0,East,4.6,-,N/A,,Scattered Clouds,100,2013-01-02 04:53:00